Time;durP1;ratioP1;P1;durP2;ratioP2;P2;SDS_P1;SDS_P2;PMS_P1;PMS_P2;Temp;Humidity;BMP_temperature;BMP_pressure;BME280_temperature;BME280_humidity;BME280_pressure;Samples;Min_cycle;Max_cycle;Signal;HPM_P1;HPM_P2
2022/05/29 00:01:54;;;;;;;5.47;1.30;;;12.30;99.90;;;;;;5025571;28;20644;-73
2022/05/29 00:04:21;;;;;;;3.90;1.50;;;12.20;99.90;;;;;;5026492;28;20217;-76
2022/05/29 00:06:52;;;;;;;4.57;1.70;;;12.20;99.90;;;;;;5020206;28;20710;-74
2022/05/29 00:09:25;;;;;;;7.27;1.80;;;12.10;99.90;;;;;;5022977;28;20205;-76
2022/05/29 00:11:52;;;;;;;5.27;1.80;;;12.00;99.90;;;;;;5027168;28;20212;-74
2022/05/29 00:14:20;;;;;;;6.43;1.40;;;12.00;99.90;;;;;;5022929;28;20308;-74
2022/05/29 00:16:46;;;;;;;2.00;1.53;;;12.00;99.90;;;;;;5023819;28;20189;-75
2022/05/29 00:19:13;;;;;;;6.50;1.90;;;12.00;99.90;;;;;;5028897;28;20248;-76
2022/05/29 00:21:40;;;;;;;6.57;2.00;;;11.90;99.90;;;;;;5026402;28;20251;-74
2022/05/29 00:24:08;;;;;;;3.50;1.40;;;11.90;99.90;;;;;;5027486;28;20235;-76
2022/05/29 00:26:34;;;;;;;2.77;1.60;;;11.90;99.90;;;;;;5021927;28;20216;-76
2022/05/29 00:29:01;;;;;;;3.90;1.60;;;11.90;99.90;;;;;;5028323;28;20204;-76
2022/05/29 00:31:28;;;;;;;5.70;1.60;;;11.80;99.90;;;;;;5025426;28;20202;-74
2022/05/29 00:33:55;;;;;;;4.40;1.90;;;11.80;99.90;;;;;;5026039;28;20233;-76
2022/05/29 00:36:21;;;;;;;3.37;1.53;;;11.80;99.90;;;;;;5025304;28;20684;-75
2022/05/29 00:38:49;;;;;;;4.90;1.70;;;11.70;99.90;;;;;;5026299;28;20202;-76
2022/05/29 00:41:29;;;;;;;7.13;1.70;;;11.70;99.90;;;;;;5019387;28;20197;-74
2022/05/29 00:44:16;;;;;;;3.87;1.63;;;11.60;99.90;;;;;;5024300;28;20229;-75
2022/05/29 00:46:51;;;;;;;8.63;1.70;;;11.60;99.90;;;;;;5022202;28;20204;-72
2022/05/29 00:49:24;;;;;;;4.97;1.60;;;11.60;99.90;;;;;;5020028;28;20199;-71
2022/05/29 00:52:02;;;;;;;8.63;1.80;;;11.60;99.90;;;;;;5025545;28;20197;-69
2022/05/29 00:54:31;;;;;;;3.50;1.50;;;11.50;99.90;;;;;;5037414;28;20223;-70
2022/05/29 00:56:58;;;;;;;4.87;1.70;;;11.50;99.90;;;;;;5026396;28;20199;-70
2022/05/29 00:59:28;;;;;;;4.90;1.90;;;11.50;99.90;;;;;;5022447;28;20192;-68
2022/05/29 01:01:56;;;;;;;4.50;1.87;;;11.40;99.90;;;;;;5025949;28;20227;-69
2022/05/29 01:04:23;;;;;;;4.03;1.50;;;11.40;99.90;;;;;;5027045;28;20223;-71
2022/05/29 01:06:49;;;;;;;4.30;1.50;;;11.50;99.90;;;;;;5022807;28;20572;-70
2022/05/29 01:09:16;;;;;;;4.10;1.50;;;11.50;99.90;;;;;;5022329;28;20208;-70
2022/05/29 01:12:07;;;;;;;4.03;1.53;;;11.40;99.90;;;;;;5020398;28;20211;-68
2022/05/29 01:14:55;;;;;;;3.87;1.40;;;11.40;99.90;;;;;;5019412;28;20220;-69
2022/05/29 01:17:30;;;;;;;7.37;1.87;;;11.40;99.90;;;;;;5024549;28;20202;-67
2022/05/29 01:20:03;;;;;;;4.90;1.50;;;11.40;99.90;;;;;;5024891;28;20204;-67
2022/05/29 01:22:50;;;;;;;5.93;1.60;;;11.40;99.90;;;;;;5022307;28;20189;-69
2022/05/29 01:25:29;;;;;;;6.87;1.37;;;11.40;99.90;;;;;;5024453;28;20210;-68
2022/05/29 01:28:21;;;;;;;6.47;2.00;;;11.40;99.90;;;;;;5026937;28;20196;-69
2022/05/29 01:31:12;;;;;;;2.33;1.33;;;11.50;99.90;;;;;;5021184;28;20203;-68
2022/05/29 01:34:12;;;;;;;3.70;1.77;;;11.50;99.90;;;;;;5022139;28;20216;-69
2022/05/29 01:36:51;;;;;;;4.33;1.40;;;11.40;99.90;;;;;;5022894;28;20199;-69
2022/05/29 01:39:35;;;;;;;3.40;1.40;;;11.30;99.90;;;;;;5027351;28;20254;-70
2022/05/29 01:42:12;;;;;;;4.93;1.63;;;11.30;99.90;;;;;;5019335;28;20694;-70
2022/05/29 01:44:45;;;;;;;3.90;1.40;;;11.30;99.90;;;;;;5022336;28;20211;-71
2022/05/29 01:47:18;;;;;;;3.50;1.70;;;11.30;99.90;;;;;;5025333;28;20799;-74
2022/05/29 01:49:50;;;;;;;5.40;1.90;;;11.20;99.90;;;;;;5025121;28;20208;-74
2022/05/29 01:52:35;;;;;;;3.70;1.63;;;11.30;99.90;;;;;;5020817;28;20674;-74
2022/05/29 01:55:08;;;;;;;5.47;1.80;;;11.20;99.90;;;;;;5027638;28;20712;-74
2022/05/29 01:57:42;;;;;;;3.73;1.73;;;11.20;99.90;;;;;;5027735;28;20212;-73
2022/05/29 02:00:18;;;;;;;4.07;1.73;;;11.30;99.90;;;;;;5020405;28;20191;-74
2022/05/29 02:02:51;;;;;;;4.63;1.90;;;11.30;99.90;;;;;;5030312;28;20188;-72
2022/05/29 02:05:23;;;;;;;6.97;1.80;;;11.20;99.90;;;;;;5026840;28;20315;-69
2022/05/29 02:07:59;;;;;;;3.77;1.80;;;11.10;99.90;;;;;;5041266;28;20202;-70
2022/05/29 02:10:35;;;;;;;6.17;1.60;;;11.10;99.90;;;;;;5027926;28;20199;-67
2022/05/29 02:13:18;;;;;;;6.13;1.60;;;11.00;99.90;;;;;;5021342;28;20230;-69
2022/05/29 02:16:05;;;;;;;3.37;1.60;;;11.00;99.90;;;;;;5030187;28;20228;-67
2022/05/29 02:18:45;;;;;;;4.67;1.80;;;10.90;99.90;;;;;;5027905;28;20206;-67
2022/05/29 02:21:21;;;;;;;7.23;1.70;;;10.80;99.90;;;;;;5023914;28;20199;-67
2022/05/29 02:23:55;;;;;;;6.00;1.87;;;10.70;99.90;;;;;;5027641;28;20271;-67
2022/05/29 02:26:25;;;;;;;4.03;1.80;;;10.60;99.90;;;;;;5025587;28;20204;-74
2022/05/29 02:28:59;;;;;;;5.37;1.90;;;10.50;99.90;;;;;;5027444;28;20211;-69
2022/05/29 02:31:52;;;;;;;5.07;1.67;;;10.50;99.90;;;;;;5023277;28;20201;-68
2022/05/29 02:34:57;;;;;;;5.23;1.80;;;10.50;99.90;;;;;;5025761;28;20690;-67
2022/05/29 02:37:36;;;;;;;6.73;1.40;;;10.40;99.90;;;;;;5026499;28;20646;-67
2022/05/29 02:40:10;;;;;;;5.97;1.83;;;10.40;99.90;;;;;;5025126;28;20196;-67
2022/05/29 02:42:39;;;;;;;5.03;1.90;;;10.30;99.90;;;;;;5027593;28;20207;-67
2022/05/29 02:45:44;;;;;;;7.50;2.10;;;10.20;99.90;;;;;;5027850;28;20243;-69
2022/05/29 02:48:26;;;;;;;5.03;1.83;;;10.10;99.90;;;;;;5021467;28;20201;-67
2022/05/29 02:51:08;;;;;;;5.93;1.70;;;10.10;99.90;;;;;;5029758;28;20562;-67
2022/05/29 02:53:35;;;;;;;3.73;1.70;;;10.00;99.90;;;;;;5029429;28;20229;-66
2022/05/29 02:56:05;;;;;;;7.00;1.83;;;9.90;99.90;;;;;;5026928;28;20203;-66
2022/05/29 02:58:34;;;;;;;4.37;1.93;;;9.80;99.90;;;;;;5023072;28;20195;-66
2022/05/29 03:01:23;;;;;;;5.57;2.00;;;9.70;99.90;;;;;;5020624;28;20207;-66
2022/05/29 03:03:55;;;;;;;5.90;1.70;;;9.70;99.90;;;;;;5027549;28;20578;-66
2022/05/29 03:06:31;;;;;;;3.70;1.70;;;9.60;99.90;;;;;;5025881;28;20227;-66
2022/05/29 03:09:19;;;;;;;4.40;1.83;;;9.60;99.90;;;;;;5028055;28;20200;-67
2022/05/29 03:11:46;;;;;;;7.10;2.03;;;9.50;99.90;;;;;;5025324;28;20211;-67
2022/05/29 03:14:16;;;;;;;3.33;1.70;;;9.50;99.90;;;;;;5024856;28;20262;-67
2022/05/29 03:16:51;;;;;;;5.10;1.70;;;9.50;99.90;;;;;;5024749;28;20591;-67
2022/05/29 03:19:35;;;;;;;7.97;1.77;;;9.40;99.90;;;;;;5030667;28;20195;-66
2022/05/29 03:22:20;;;;;;;3.33;1.50;;;9.40;99.90;;;;;;5023710;28;20370;-66
2022/05/29 03:24:59;;;;;;;3.60;1.97;;;9.30;99.90;;;;;;5028463;28;20223;-66
2022/05/29 03:27:35;;;;;;;5.97;1.90;;;9.30;99.90;;;;;;5025745;28;20203;-66
2022/05/29 03:30:26;;;;;;;5.70;1.70;;;9.30;99.90;;;;;;5026118;28;20206;-67
2022/05/29 03:32:57;;;;;;;5.23;1.97;;;9.20;99.90;;;;;;5024991;28;20234;-66
2022/05/29 03:35:29;;;;;;;7.73;1.73;;;9.20;99.90;;;;;;5025871;28;20223;-67
2022/05/29 03:37:58;;;;;;;3.90;1.90;;;9.20;99.90;;;;;;5027606;28;20200;-66
2022/05/29 03:40:27;;;;;;;5.77;1.80;;;9.20;99.90;;;;;;5025262;28;20192;-67
2022/05/29 03:42:55;;;;;;;5.90;1.70;;;9.30;99.90;;;;;;5028892;28;20219;-67
2022/05/29 03:45:22;;;;;;;6.63;1.90;;;9.30;99.90;;;;;;5027072;28;21508;-66
2022/05/29 03:47:49;;;;;;;3.17;1.90;;;9.30;99.90;;;;;;5026294;28;20283;-66
2022/05/29 03:50:19;;;;;;;4.13;2.07;;;9.30;99.90;;;;;;5022576;28;20230;-67
2022/05/29 03:52:46;;;;;;;7.13;1.90;;;9.30;99.90;;;;;;5024973;28;20662;-67
2022/05/29 03:55:14;;;;;;;4.23;2.30;;;9.30;99.90;;;;;;5024895;28;20234;-66
2022/05/29 03:57:41;;;;;;;6.83;1.97;;;9.40;99.90;;;;;;5023926;28;20198;-66
2022/05/29 04:00:10;;;;;;;5.43;1.77;;;9.40;99.90;;;;;;5021212;28;20223;-67
2022/05/29 04:02:39;;;;;;;5.93;1.90;;;9.50;99.90;;;;;;5021296;28;21584;-67
2022/05/29 04:05:11;;;;;;;5.30;2.30;;;9.50;99.90;;;;;;5024238;28;20235;-66
2022/05/29 04:13:10;;;;;;;5.27;1.90;;;9.60;99.90;;;;;;5024110;28;20559;-66
2022/05/29 04:15:37;;;;;;;2.93;1.63;;;9.60;99.90;;;;;;5028978;28;20238;-67
2022/05/29 04:18:04;;;;;;;5.90;1.83;;;9.60;99.90;;;;;;5025241;28;20202;-66
2022/05/29 04:20:31;;;;;;;6.53;1.53;;;9.70;99.90;;;;;;5024410;28;20195;-67
2022/05/29 04:22:57;;;;;;;5.40;1.73;;;9.70;99.90;;;;;;5017967;28;20192;-67
2022/05/29 04:25:24;;;;;;;5.87;1.60;;;9.70;99.90;;;;;;5025954;28;20217;-66
2022/05/29 04:27:51;;;;;;;6.33;1.60;;;9.70;99.90;;;;;;5024946;28;20198;-66
2022/05/29 04:30:18;;;;;;;3.67;1.60;;;9.80;99.90;;;;;;5026391;28;20208;-67
2022/05/29 04:33:00;;;;;;;6.50;1.50;;;9.80;99.90;;;;;;5026495;28;20192;-67
2022/05/29 04:35:35;;;;;;;3.77;1.60;;;9.80;99.90;;;;;;5023260;28;20249;-73
2022/05/29 04:38:02;;;;;;;3.63;1.70;;;9.80;99.90;;;;;;5023123;28;20198;-69
2022/05/29 04:40:30;;;;;;;3.17;1.60;;;9.90;99.90;;;;;;5027392;28;20207;-66
2022/05/29 04:42:56;;;;;;;9.63;2.00;;;10.00;99.90;;;;;;5022214;28;20201;-67
2022/05/29 04:45:23;;;;;;;5.20;1.60;;;10.00;99.90;;;;;;5024805;28;20414;-67
2022/05/29 04:47:50;;;;;;;8.50;2.03;;;10.00;99.90;;;;;;5022390;28;20208;-74
2022/05/29 04:50:17;;;;;;;4.13;1.60;;;10.00;99.90;;;;;;5025115;28;20204;-72
2022/05/29 04:52:43;;;;;;;6.80;2.10;;;10.00;99.90;;;;;;5025982;28;20206;-75
2022/05/29 04:55:10;;;;;;;5.57;1.60;;;10.00;99.90;;;;;;5023776;28;20226;-67
2022/05/29 04:57:41;;;;;;;6.97;1.83;;;10.00;99.90;;;;;;5024372;28;20201;-70
2022/05/29 05:00:08;;;;;;;2.90;1.63;;;10.00;99.90;;;;;;5024809;28;20565;-67
2022/05/29 05:02:36;;;;;;;5.10;1.50;;;10.10;99.90;;;;;;5023148;28;20199;-67
2022/05/29 05:05:03;;;;;;;3.43;1.50;;;10.10;99.90;;;;;;5022482;28;20604;-67
2022/05/29 05:07:30;;;;;;;2.87;1.33;;;10.10;99.90;;;;;;5023158;28;20195;-67
2022/05/29 05:09:57;;;;;;;9.03;1.80;;;10.10;99.90;;;;;;5024496;28;20201;-67
2022/05/29 05:12:24;;;;;;;6.63;1.90;;;10.20;99.90;;;;;;5021298;28;20786;-67
2022/05/29 05:14:50;;;;;;;5.33;1.80;;;10.30;99.90;;;;;;5027369;28;20219;-67
2022/05/29 05:17:17;;;;;;;3.10;1.50;;;10.30;99.90;;;;;;5026774;28;20214;-67
2022/05/29 05:19:44;;;;;;;6.80;1.63;;;10.30;99.90;;;;;;5024867;28;20207;-67
2022/05/29 05:22:11;;;;;;;5.40;2.10;;;10.40;99.90;;;;;;5020333;28;20218;-68
2022/05/29 05:24:38;;;;;;;3.73;1.70;;;10.50;99.90;;;;;;5022341;28;20396;-75
2022/05/29 05:27:06;;;;;;;3.70;1.93;;;10.50;99.90;;;;;;5019624;28;20210;-75
2022/05/29 05:29:40;;;;;;;3.47;1.70;;;10.60;99.90;;;;;;5022739;28;20208;-73
2022/05/29 05:32:08;;;;;;;4.93;1.50;;;10.70;99.90;;;;;;5021951;28;20702;-73
2022/05/29 05:34:34;;;;;;;5.20;1.57;;;10.70;99.90;;;;;;5028090;28;20270;-68
2022/05/29 05:37:01;;;;;;;5.17;1.50;;;10.70;99.90;;;;;;5025365;28;20672;-73
2022/05/29 05:39:28;;;;;;;5.90;1.80;;;10.70;99.90;;;;;;5024865;28;20705;-72
2022/05/29 05:41:55;;;;;;;6.03;1.67;;;10.90;99.90;;;;;;5026048;28;20593;-68
2022/05/29 05:44:21;;;;;;;3.77;1.70;;;11.00;99.90;;;;;;5021598;28;20231;-71
2022/05/29 05:46:53;;;;;;;2.90;1.40;;;11.10;99.90;;;;;;5025932;28;20201;-73
2022/05/29 05:49:26;;;;;;;3.87;1.23;;;11.20;99.90;;;;;;5020479;28;20198;-74
2022/05/29 05:51:54;;;;;;;4.40;1.60;;;11.40;99.90;;;;;;5022572;28;20210;-75
2022/05/29 05:54:21;;;;;;;3.90;1.63;;;11.80;99.90;;;;;;5025202;28;20232;-75
2022/05/29 05:56:51;;;;;;;3.67;1.70;;;11.90;99.90;;;;;;5021286;28;20611;-75
2022/05/29 05:59:18;;;;;;;4.97;1.60;;;11.80;99.90;;;;;;5026643;28;20199;-76
2022/05/29 06:01:45;;;;;;;3.93;1.50;;;11.70;99.90;;;;;;5019612;28;20191;-75
2022/05/29 06:04:11;;;;;;;5.50;1.93;;;11.50;99.90;;;;;;5012844;28;20308;-76
2022/05/29 06:06:38;;;;;;;5.47;1.63;;;11.50;99.90;;;;;;5020355;28;20196;-74
2022/05/29 06:09:05;;;;;;;3.60;1.30;;;11.60;99.90;;;;;;5021557;28;20211;-74
2022/05/29 06:11:33;;;;;;;4.23;1.57;;;11.50;99.90;;;;;;5018353;28;20208;-74
2022/05/29 06:14:00;;;;;;;4.10;1.60;;;11.50;99.90;;;;;;5023819;28;20226;-75
2022/05/29 06:16:27;;;;;;;4.70;1.60;;;11.60;99.90;;;;;;5025059;28;20206;-76
2022/05/29 06:18:53;;;;;;;4.93;1.40;;;11.50;99.90;;;;;;5022026;28;20230;-76
2022/05/29 06:21:20;;;;;;;3.57;1.60;;;11.50;99.90;;;;;;5019022;28;20192;-75
2022/05/29 06:23:47;;;;;;;7.27;1.87;;;11.60;99.90;;;;;;5023271;28;20733;-75
2022/05/29 06:26:14;;;;;;;6.27;2.13;;;11.60;99.90;;;;;;5024049;28;20243;-75
2022/05/29 06:28:41;;;;;;;5.60;1.60;;;11.60;99.90;;;;;;5021580;28;20196;-73
2022/05/29 06:31:10;;;;;;;5.40;1.60;;;11.60;99.90;;;;;;5020008;28;20249;-76
2022/05/29 06:33:37;;;;;;;4.47;1.70;;;11.70;99.90;;;;;;5036268;28;20206;-75
2022/05/29 06:36:12;;;;;;;3.20;1.50;;;11.70;99.90;;;;;;5021417;28;20235;-75
2022/05/29 06:38:39;;;;;;;4.50;1.70;;;11.60;99.90;;;;;;5021220;28;20209;-75
2022/05/29 06:41:07;;;;;;;5.30;1.90;;;11.80;99.90;;;;;;5016236;28;20584;-74
2022/05/29 06:43:34;;;;;;;3.43;1.50;;;11.80;99.90;;;;;;5028193;28;20555;-75
2022/05/29 06:46:02;;;;;;;4.53;1.70;;;11.90;99.90;;;;;;5025316;28;20203;-75
2022/05/29 06:48:32;;;;;;;3.67;1.50;;;11.80;99.90;;;;;;5026744;28;20393;-75
2022/05/29 06:51:04;;;;;;;4.13;1.50;;;11.80;99.90;;;;;;5027503;28;20196;-75
2022/05/29 06:53:30;;;;;;;6.03;1.47;;;12.00;99.90;;;;;;5025414;28;20688;-72
2022/05/29 06:55:57;;;;;;;4.40;1.50;;;12.00;99.90;;;;;;5024657;28;20244;-68
2022/05/29 06:58:24;;;;;;;2.80;1.43;;;12.20;99.90;;;;;;5023820;28;20198;-68
2022/05/29 07:09:11;;;;;;;3.97;1.20;;;15.60;99.90;;;;;;5027274;28;20213;-68
2022/05/29 07:11:42;;;;;;;3.10;1.23;;;15.70;99.90;;;;;;5028120;28;20218;-67
2022/05/29 07:14:09;;;;;;;3.57;1.20;;;16.00;99.90;;;;;;5026403;28;20229;-68
2022/05/29 07:16:37;;;;;;;4.50;1.20;;;15.90;99.90;;;;;;5025110;28;20229;-68
2022/05/29 07:19:04;;;;;;;3.40;0.90;;;15.70;99.90;;;;;;5019099;28;20206;-67
2022/05/29 07:21:36;;;;;;;4.00;1.30;;;15.80;99.90;;;;;;5023619;28;20265;-67
2022/05/29 07:24:03;;;;;;;1.33;0.97;;;15.20;99.90;;;;;;5024077;28;20225;-67
2022/05/29 07:26:30;;;;;;;3.93;1.47;;;15.00;99.90;;;;;;5024644;28;20199;-67
2022/05/29 07:28:56;;;;;;;6.30;1.50;;;14.90;99.90;;;;;;5024087;28;20258;-67
2022/05/29 07:31:23;;;;;;;4.47;1.10;;;14.90;99.90;;;;;;5027824;28;20201;-67
2022/05/29 07:33:49;;;;;;;5.33;1.13;;;14.90;99.90;;;;;;5022701;28;20285;-67
2022/05/29 07:36:17;;;;;;;4.00;1.07;;;14.70;99.90;;;;;;5023902;28;20224;-67
2022/05/29 07:38:45;;;;;;;4.57;1.30;;;14.50;99.90;;;;;;5023497;28;20196;-68
2022/05/29 07:44:00;;;;;;;4.00;1.40;;;14.60;99.90;;;;;;5020073;28;20231;-67
2022/05/29 07:46:26;;;;;;;2.47;0.90;;;14.50;99.90;;;;;;5018677;28;20198;-68
2022/05/29 07:48:53;;;;;;;2.40;1.20;;;14.50;99.90;;;;;;5025497;28;20560;-67
2022/05/29 07:51:20;;;;;;;1.63;1.17;;;14.70;99.90;;;;;;5015034;28;20621;-68
2022/05/29 07:53:47;;;;;;;4.57;1.20;;;14.70;99.90;;;;;;5016337;28;20194;-68
2022/05/29 07:56:16;;;;;;;1.67;0.90;;;14.80;99.90;;;;;;5018723;28;20218;-68
2022/05/29 07:58:44;;;;;;;3.00;1.00;;;14.90;99.90;;;;;;5019923;28;20193;-68
2022/05/29 08:01:11;;;;;;;2.77;0.97;;;14.90;99.90;;;;;;5018913;28;20197;-68
2022/05/29 08:03:39;;;;;;;3.50;1.23;;;15.00;99.90;;;;;;5021606;28;20229;-68
2022/05/29 08:06:06;;;;;;;2.17;1.10;;;15.10;99.90;;;;;;5022728;28;20209;-68
2022/05/29 08:08:33;;;;;;;2.50;0.93;;;15.20;99.90;;;;;;5033106;28;20207;-67
2022/05/29 08:11:01;;;;;;;5.53;1.00;;;15.20;99.90;;;;;;5020734;28;20203;-68
2022/05/29 08:13:29;;;;;;;4.93;1.20;;;15.10;99.90;;;;;;5020229;28;20221;-68
2022/05/29 08:15:56;;;;;;;2.13;1.10;;;15.20;99.90;;;;;;5024749;28;20234;-67
2022/05/29 08:18:23;;;;;;;2.47;1.10;;;15.40;99.90;;;;;;5022644;28;20272;-68
2022/05/29 08:20:51;;;;;;;1.80;0.83;;;15.50;99.90;;;;;;5019430;28;20214;-68
2022/05/29 08:23:23;;;;;;;1.43;1.10;;;15.40;99.90;;;;;;5023997;28;20191;-67
2022/05/29 08:31:21;;;;;;;2.83;0.80;;;15.70;99.90;;;;;;5018099;28;20674;-69
2022/05/29 08:33:48;;;;;;;2.07;1.00;;;15.90;99.90;;;;;;5026640;28;20253;-68
2022/05/29 08:36:19;;;;;;;1.90;0.80;;;16.00;99.90;;;;;;5022804;28;20215;-68
2022/05/29 08:38:47;;;;;;;2.63;0.90;;;16.10;99.90;;;;;;5020350;28;20223;-68
2022/05/29 08:41:33;;;;;;;2.63;1.07;;;16.00;99.90;;;;;;5015578;28;20242;-67
2022/05/29 08:44:06;;;;;;;1.93;1.00;;;16.00;99.90;;;;;;5026569;28;20218;-68
2022/05/29 08:46:41;;;;;;;3.57;1.10;;;16.30;99.90;;;;;;5023600;28;20203;-67
2022/05/29 08:49:11;;;;;;;1.63;0.90;;;16.80;99.90;;;;;;5020009;28;20230;-67
2022/05/29 08:51:52;;;;;;;2.37;0.93;;;17.30;99.90;;;;;;5022077;28;20199;-68
2022/05/29 08:54:39;;;;;;;3.17;0.80;;;17.70;99.90;;;;;;5023725;28;20238;-67
2022/05/29 08:57:33;;;;;;;4.13;1.00;;;17.60;99.90;;;;;;5023950;28;20203;-68
2022/05/29 09:00:06;;;;;;;4.40;0.80;;;16.90;99.90;;;;;;5024578;28;20693;-68
2022/05/29 09:02:54;;;;;;;1.73;0.90;;;16.90;99.90;;;;;;5023644;28;20211;-68
2022/05/29 09:05:46;;;;;;;1.80;1.00;;;16.50;99.90;;;;;;5020468;28;20207;-67
2022/05/29 09:08:23;;;;;;;3.97;1.30;;;16.10;99.90;;;;;;5024596;28;20199;-67
2022/05/29 09:10:55;;;;;;;2.60;1.20;;;15.80;99.90;;;;;;5021752;28;20202;-68
2022/05/29 09:13:37;;;;;;;2.70;1.00;;;15.60;99.90;;;;;;5023994;28;20210;-67
2022/05/29 09:16:12;;;;;;;1.93;1.10;;;15.60;99.90;;;;;;5021558;28;20228;-65
2022/05/29 09:18:43;;;;;;;3.20;1.13;;;15.60;99.90;;;;;;5023650;28;20258;-65
2022/05/29 09:21:56;;;;;;;2.10;0.90;;;15.60;99.90;;;;;;5018342;28;20265;-65
2022/05/29 09:24:50;;;;;;;3.03;1.00;;;15.60;99.90;;;;;;5021670;28;20216;-65
2022/05/29 09:27:17;;;;;;;3.57;0.80;;;16.40;99.90;;;;;;5017467;28;20749;-65
2022/05/29 09:29:44;;;;;;;1.00;0.80;;;16.90;99.90;;;;;;5023323;28;20660;-65
2022/05/29 09:32:32;;;;;;;1.10;0.80;;;17.50;99.90;;;;;;5026503;28;20201;-65
2022/05/29 09:35:04;;;;;;;1.43;0.83;;;17.80;99.90;;;;;;5017677;28;20223;-66
2022/05/29 09:37:47;;;;;;;1.97;0.90;;;17.70;99.90;;;;;;5021713;28;20446;-66
2022/05/29 09:40:26;;;;;;;2.33;0.90;;;17.70;99.90;;;;;;5023663;28;20222;-68
2022/05/29 09:42:53;;;;;;;4.43;0.97;;;17.60;99.90;;;;;;5024072;28;20203;-68
2022/05/29 09:45:20;;;;;;;1.33;0.80;;;17.40;99.90;;;;;;5021631;28;20293;-68
2022/05/29 09:50:54;;;;;;;2.53;0.90;;;17.20;99.90;;;;;;5018972;28;20203;-65
2022/05/29 09:53:26;;;;;;;2.37;1.00;;;17.00;99.90;;;;;;5014918;28;20204;-65
2022/05/29 09:56:03;;;;;;;4.30;1.07;;;16.80;99.90;;;;;;5016941;28;20686;-65
2022/05/29 09:58:51;;;;;;;1.90;0.90;;;16.60;99.90;;;;;;5015137;28;20192;-65
2022/05/29 10:01:40;;;;;;;1.53;0.80;;;16.50;99.90;;;;;;5019483;28;20206;-65
2022/05/29 10:04:34;;;;;;;2.07;0.90;;;16.80;99.80;;;;;;5027959;28;20220;-66
2022/05/29 10:07:31;;;;;;;3.50;1.10;;;17.60;99.90;;;;;;5031525;28;20542;-66
2022/05/29 10:10:08;;;;;;;2.27;0.87;;;17.90;99.80;;;;;;5020759;28;20191;-66
2022/05/29 10:12:47;;;;;;;3.43;1.03;;;17.70;99.90;;;;;;5023206;28;20204;-66
2022/05/29 10:15:34;;;;;;;2.27;1.00;;;17.30;99.90;;;;;;5024056;28;20225;-67
2022/05/29 10:18:09;;;;;;;3.67;1.23;;;17.70;99.90;;;;;;5023150;28;20202;-68
2022/05/29 10:20:42;;;;;;;1.97;1.07;;;17.40;99.90;;;;;;5022353;28;20196;-70
2022/05/29 10:23:29;;;;;;;1.67;1.10;;;17.10;99.90;;;;;;5024572;28;20202;-67
2022/05/29 10:26:21;;;;;;;2.37;1.13;;;17.00;99.90;;;;;;5036628;28;20202;-69
2022/05/29 10:28:49;;;;;;;3.87;1.30;;;16.60;99.90;;;;;;5022839;28;20685;-68
2022/05/29 10:31:26;;;;;;;1.77;1.17;;;16.30;99.90;;;;;;5026849;28;20200;-68
2022/05/29 10:34:05;;;;;;;3.13;1.10;;;16.60;99.90;;;;;;5035843;28;20207;-69
2022/05/29 10:36:33;;;;;;;2.40;0.97;;;17.20;99.90;;;;;;5019814;28;20220;-68
2022/05/29 10:39:08;;;;;;;1.73;1.00;;;18.10;99.40;;;;;;5018165;28;20214;-70
2022/05/29 10:41:41;;;;;;;3.23;1.10;;;18.60;97.40;;;;;;5020310;28;20199;-71
2022/05/29 10:44:36;;;;;;;2.93;1.00;;;18.70;97.20;;;;;;5038414;28;20219;-71
2022/05/29 10:47:24;;;;;;;2.17;1.10;;;18.50;96.80;;;;;;5015867;28;20196;-71
2022/05/29 10:50:04;;;;;;;2.47;1.03;;;18.10;97.40;;;;;;5023565;28;20196;-68
2022/05/29 10:53:09;;;;;;;1.73;1.00;;;17.90;97.10;;;;;;5016663;28;20203;-68
2022/05/29 10:55:45;;;;;;;3.33;0.93;;;18.10;97.20;;;;;;5016109;28;20288;-69
2022/05/29 10:58:36;;;;;;;3.77;1.00;;;18.30;96.70;;;;;;5035427;28;20692;-70
2022/05/29 11:04:34;;;;;;;2.40;1.00;;;18.70;97.20;;;;;;5015741;28;20215;-69
2022/05/29 11:07:13;;;;;;;2.00;1.07;;;19.60;98.10;;;;;;5018745;28;20200;-68
2022/05/29 11:09:52;;;;;;;2.60;0.87;;;20.20;95.80;;;;;;5023066;28;20200;-68
2022/05/29 11:13:01;;;;;;;1.63;1.20;;;19.90;95.00;;;;;;5021790;28;20212;-67
2022/05/29 11:15:58;;;;;;;1.83;1.13;;;18.70;96.80;;;;;;5013849;28;20781;-67
2022/05/29 11:18:58;;;;;;;3.60;1.90;;;18.60;97.60;;;;;;5016855;28;20196;-69
2022/05/29 11:21:43;;;;;;;3.97;1.10;;;19.10;97.70;;;;;;5017555;28;20650;-69
2022/05/29 11:24:37;;;;;;;1.97;1.00;;;19.20;97.60;;;;;;5013843;28;20234;-68
2022/05/29 11:27:31;;;;;;;3.97;2.70;;;19.30;97.90;;;;;;5025024;28;20196;-68
2022/05/29 11:30:24;;;;;;;5.83;2.03;;;19.50;97.60;;;;;;5014556;28;20536;-67
2022/05/29 11:33:32;;;;;;;3.03;1.17;;;19.70;97.80;;;;;;5013887;28;20203;-67
2022/05/29 11:36:02;;;;;;;1.10;0.90;;;20.00;95.90;;;;;;5013799;28;20219;-69
2022/05/29 11:38:58;;;;;;;3.07;0.97;;;19.70;96.10;;;;;;5015261;28;20569;-68
2022/05/29 11:41:39;;;;;;;2.17;0.90;;;19.60;95.90;;;;;;5012981;28;20200;-68
2022/05/29 11:44:21;;;;;;;6.30;3.43;;;19.40;97.20;;;;;;5007791;28;20509;-67
2022/05/29 11:52:56;;;;;;;22.80;13.27;;;18.80;97.70;;;;;;5019032;28;20253;-67
2022/05/29 11:55:27;;;;;;;5.70;3.23;;;18.40;98.60;;;;;;5028702;28;20223;-67
2022/05/29 11:58:08;;;;;;;2.23;1.40;;;18.40;98.30;;;;;;5026178;28;20800;-67
2022/05/29 12:00:49;;;;;;;2.20;0.90;;;18.30;98.90;;;;;;5020943;28;20196;-68
2022/05/29 12:03:22;;;;;;;2.40;1.20;;;18.10;99.20;;;;;;5016331;28;20758;-67
2022/05/29 12:06:02;;;;;;;1.17;1.07;;;18.30;99.50;;;;;;5020825;28;20211;-68
2022/05/29 12:08:47;;;;;;;2.00;0.90;;;18.80;98.60;;;;;;5023205;28;20196;-69
2022/05/29 12:11:59;;;;;;;3.23;1.00;;;19.80;98.50;;;;;;5022435;28;20579;-68
2022/05/29 12:14:33;;;;;;;3.13;1.00;;;20.30;97.00;;;;;;5016076;28;20220;-65
2022/05/29 12:17:33;;;;;;;1.93;1.13;;;20.20;96.80;;;;;;5023126;28;20214;-67
2022/05/29 12:20:03;;;;;;;1.67;0.90;;;20.00;96.70;;;;;;5022802;28;20192;-70
2022/05/29 12:22:37;;;;;;;1.13;1.07;;;19.80;96.30;;;;;;5018938;28;20662;-66
2022/05/29 12:25:22;;;;;;;2.10;1.20;;;19.70;96.90;;;;;;5019969;28;20236;-66
2022/05/29 12:27:49;;;;;;;1.93;0.93;;;19.90;97.00;;;;;;5019070;28;20206;-65
2022/05/29 12:30:29;;;;;;;2.00;0.80;;;19.90;95.80;;;;;;5028539;28;20204;-65
2022/05/29 12:32:56;;;;;;;1.47;1.00;;;19.30;96.10;;;;;;5014004;28;20229;-65
2022/05/29 12:35:35;;;;;;;2.63;1.03;;;19.50;96.40;;;;;;5026841;28;20227;-65
2022/05/29 12:38:18;;;;;;;1.40;0.90;;;20.30;95.40;;;;;;5023154;28;20475;-66
2022/05/29 12:40:57;;;;;;;2.30;1.00;;;20.60;95.70;;;;;;5036755;28;20198;-65
2022/05/29 12:43:42;;;;;;;3.40;1.10;;;20.00;95.70;;;;;;5024579;28;20188;-65
2022/05/29 12:46:37;;;;;;;3.80;1.20;;;19.20;97.50;;;;;;5028533;28;20253;-65
2022/05/29 12:49:35;;;;;;;2.80;1.20;;;18.60;99.00;;;;;;5018958;28;20196;-66
2022/05/29 12:52:10;;;;;;;3.13;1.40;;;18.50;99.30;;;;;;5021552;28;20197;-65
2022/05/29 12:54:36;;;;;;;1.90;1.37;;;18.20;99.50;;;;;;5020394;28;20223;-65
2022/05/29 12:57:29;;;;;;;2.13;1.40;;;18.20;99.50;;;;;;5018909;28;20220;-65
2022/05/29 13:00:30;;;;;;;1.40;1.23;;;18.10;99.90;;;;;;5022805;28;20220;-66
2022/05/29 13:03:15;;;;;;;1.43;1.30;;;18.10;99.90;;;;;;5036991;28;20670;-65
2022/05/29 13:06:17;;;;;;;2.07;1.47;;;18.40;99.40;;;;;;5018171;28;20218;-66
2022/05/29 13:09:10;;;;;;;2.83;1.23;;;18.50;99.00;;;;;;5020744;28;20673;-65
2022/05/29 13:11:40;;;;;;;2.30;0.93;;;18.30;98.30;;;;;;5016848;28;20204;-65
2022/05/29 13:14:08;;;;;;;1.27;1.17;;;18.10;98.50;;;;;;5016285;28;20226;-65
2022/05/29 13:16:40;;;;;;;1.87;1.10;;;18.30;97.40;;;;;;5023622;28;20223;-66
2022/05/29 13:19:14;;;;;;;3.70;1.27;;;18.00;97.30;;;;;;5025540;28;20287;-66
2022/05/29 13:21:59;;;;;;;1.83;1.20;;;18.30;97.60;;;;;;5020209;28;20215;-66
2022/05/29 13:24:45;;;;;;;1.77;1.17;;;19.10;96.30;;;;;;5025888;28;20222;-65
2022/05/29 13:27:18;;;;;;;3.10;1.67;;;19.60;96.60;;;;;;5039502;28;20210;-66
2022/05/29 13:29:55;;;;;;;3.50;1.63;;;19.60;97.90;;;;;;5023117;28;20675;-66
2022/05/29 13:32:30;;;;;;;3.00;1.67;;;19.70;98.00;;;;;;5017641;28;20700;-66
2022/05/29 13:35:02;;;;;;;3.97;1.77;;;19.60;98.40;;;;;;5025076;28;20221;-66
2022/05/29 13:37:32;;;;;;;2.30;1.80;;;19.20;98.30;;;;;;5022658;28;20226;-67
2022/05/29 13:40:04;;;;;;;1.77;1.67;;;19.70;98.50;;;;;;5024575;28;20203;-65
2022/05/29 13:42:38;;;;;;;4.23;2.30;;;20.30;98.80;;;;;;5019923;28;20241;-67
2022/05/29 13:45:25;;;;;;;2.00;1.80;;;20.40;98.60;;;;;;5017014;28;20705;-65
2022/05/29 13:48:06;;;;;;;3.77;2.53;;;20.70;98.60;;;;;;5017317;28;20196;-66
2022/05/29 13:50:45;;;;;;;3.27;2.27;;;20.60;98.20;;;;;;5023817;28;20701;-66
2022/05/29 13:53:32;;;;;;;3.70;2.40;;;20.20;98.60;;;;;;5019987;28;20204;-65
2022/05/29 13:56:06;;;;;;;3.50;2.20;;;20.00;98.60;;;;;;5016718;28;20214;-66
2022/05/29 14:04:54;;;;;;;2.60;1.90;;;19.60;98.40;;;;;;5015421;28;20270;-66
2022/05/29 14:07:31;;;;;;;3.40;2.10;;;19.90;97.40;;;;;;5014887;28;20195;-67
2022/05/29 14:10:01;;;;;;;4.50;1.90;;;20.10;96.80;;;;;;5023441;28;20199;-67